createdAt,value
2022-11-22T00:07:21.978Z,6.00
2022-11-22T00:17:45.066Z,5.88
2022-11-22T00:27:48.814Z,5.82
2022-11-22T01:42:06.820Z,5.85
2022-11-22T02:15:12.721Z,5.71
2022-11-22T02:47:38.198Z,5.66
2022-11-22T03:20:22.751Z,5.52
2022-11-22T03:30:25.490Z,5.43
2022-11-22T03:40:28.339Z,5.47
2022-11-22T03:50:32.110Z,5.54
2022-11-22T04:00:35.713Z,5.60
2022-11-22T04:11:19.679Z,5.59
2022-11-22T04:21:46.777Z,5.64
2022-11-22T04:43:18.813Z,5.49
2022-11-22T04:53:21.271Z,5.30
2022-11-22T05:14:47.216Z,5.03
2022-11-22T05:24:49.991Z,4.99
2022-11-22T05:34:52.652Z,4.91
2022-11-22T05:45:04.169Z,4.79
2022-11-22T05:55:07.504Z,4.70
2022-11-22T06:05:10.614Z,4.58
2022-11-22T06:15:26.490Z,4.49
2022-11-22T06:47:49.562Z,4.20
2022-11-22T06:57:52.401Z,4.13
2022-11-22T07:08:07.900Z,4.06
2022-11-22T07:29:51.572Z,4.09
2022-11-22T07:39:54.795Z,4.21
2022-11-22T07:49:57.685Z,4.33
2022-11-22T08:00:00.463Z,4.46
2022-11-22T08:10:03.464Z,4.66
2022-11-22T08:20:09.416Z,4.86
2022-11-22T08:30:12.985Z,5.09
2022-11-22T08:40:16.029Z,5.37
2022-11-22T08:50:19.853Z,5.70
2022-11-22T09:00:22.981Z,6.00
2022-11-22T09:10:26.974Z,6.30
2022-11-22T09:20:30.559Z,6.69
2022-11-22T09:30:33.544Z,6.97
2022-11-22T10:03:44.336Z,7.04
2022-11-22T10:14:00.288Z,6.97
2022-11-22T10:24:17.579Z,6.94
2022-11-22T10:34:27.298Z,7.43
2022-11-22T10:44:57.903Z,8.07
2022-11-22T10:55:37.680Z,8.34
2022-11-22T11:17:30.833Z,8.34
2022-11-22T11:27:34.135Z,8.42
2022-11-22T11:38:05.262Z,8.74
2022-11-22T11:59:46.422Z,9.00
2022-11-22T12:09:51.147Z,9.09
2022-11-22T12:31:20.702Z,9.27
2022-11-22T12:52:43.122Z,9.75
2022-11-22T13:14:20.760Z,9.84
2022-11-22T13:25:12.998Z,9.56
2022-11-22T13:35:15.667Z,9.18
2022-11-22T13:56:40.424Z,8.80
2022-11-22T14:07:11.117Z,8.92
2022-11-22T14:17:53.605Z,9.09
2022-11-22T14:28:24.225Z,9.02
2022-11-22T14:38:33.241Z,8.98
2022-11-22T14:49:00.816Z,8.82
2022-11-22T14:59:28.375Z,8.73
2022-11-22T15:09:53.893Z,8.64
2022-11-22T16:02:26.914Z,7.87
2022-11-22T16:12:56.557Z,7.59
2022-11-22T16:23:16.339Z,7.40
2022-11-22T16:33:19.386Z,7.24
2022-11-22T16:43:25.032Z,7.12
2022-11-22T16:53:43.880Z,7.02
2022-11-22T17:03:48.805Z,6.89
2022-11-22T17:13:52.369Z,6.77
2022-11-22T17:26:08.057Z,6.58
2022-11-22T17:34:31.244Z,6.24
2022-11-22T17:44:34.796Z,6.00
2022-11-22T17:54:39.370Z,5.93
2022-11-22T18:04:48.001Z,5.88
2022-11-22T18:14:50.817Z,5.83
2022-11-22T18:24:53.489Z,5.83
2022-11-22T18:34:56.320Z,5.80
2022-11-22T18:44:59.008Z,5.81
2022-11-22T18:55:02.076Z,5.81
2022-11-22T19:05:05.647Z,5.80
2022-11-22T19:15:09.543Z,5.81
2022-11-22T19:25:12.961Z,5.75
2022-11-22T19:35:16.508Z,5.66
2022-11-22T19:45:19.838Z,5.53
2022-11-22T19:55:22.642Z,5.37
2022-11-22T20:05:26.164Z,5.35
2022-11-22T20:15:29.319Z,5.36
2022-11-22T20:25:32.315Z,5.38
2022-11-22T20:35:35.362Z,5.38
2022-11-22T20:45:38.659Z,5.41
2022-11-22T20:55:42.212Z,5.42
2022-11-22T21:05:52.795Z,5.42
2022-11-22T21:16:21.874Z,5.42
2022-11-22T21:26:27.017Z,5.41
2022-11-22T21:36:30.517Z,5.40
2022-11-22T21:46:33.197Z,5.39
2022-11-22T21:56:38.037Z,5.38
2022-11-22T22:06:44.911Z,5.35
2022-11-22T22:16:49.133Z,5.35
2022-11-22T22:26:52.811Z,5.35
2022-11-22T22:36:56.533Z,5.34
2022-11-22T22:46:59.638Z,5.32
2022-11-22T22:57:03.221Z,5.32
2022-11-22T23:07:07.546Z,5.29
2022-11-22T23:17:13.278Z,5.19
2022-11-22T23:27:16.217Z,4.93
2022-11-22T23:37:18.627Z,4.81
2022-11-22T23:47:21.893Z,4.74
2022-11-22T23:57:25.332Z,4.55
